Time;durP1;ratioP1;P1;durP2;ratioP2;P2;SDS_P1;SDS_P2;PMS_P1;PMS_P2;Temp;Humidity;BMP_temperature;BMP_pressure;BME280_temperature;BME280_humidity;BME280_pressure;Samples;Min_cycle;Max_cycle;Signal;HPM_P1;HPM_P2
2023/05/19 00:00:14;;;;;;;0.43;0.43;;;;;;;;;;5074688;28;20162;-77
2023/05/19 00:02:39;;;;;;;0.40;0.40;;;;;;;;;;5074733;28;20116;-75
2023/05/19 00:05:05;;;;;;;0.20;0.20;;;;;;;;;;5074458;28;20399;-75
2023/05/19 00:07:31;;;;;;;0.20;0.20;;;;;;;;;;5074568;28;20043;-75
2023/05/19 00:09:57;;;;;;;0.30;0.30;;;;;;;;;;5074552;28;20118;-75
2023/05/19 00:12:22;;;;;;;0.20;0.20;;;;;;;;;;5074179;28;20087;-74
2023/05/19 00:14:48;;;;;;;0.20;0.20;;;;;;;;;;5073891;28;20024;-75
2023/05/19 00:17:15;;;;;;;0.20;0.20;;;;;;;;;;5074767;28;20068;-75
2023/05/19 00:19:41;;;;;;;0.17;0.17;;;;;;;;;;5073967;28;20035;-75
2023/05/19 00:22:06;;;;;;;0.22;0.22;;;;;;;;;;5074347;28;20116;-75
2023/05/19 00:24:32;;;;;;;0.28;0.28;;;;;;;;;;5074352;28;20040;-76
2023/05/19 00:26:57;;;;;;;0.20;0.20;;;;;;;;;;5074263;28;20480;-77
2023/05/19 00:29:23;;;;;;;0.20;0.20;;;;;;;;;;5056446;28;20040;-76
2023/05/19 00:31:48;;;;;;;0.20;0.20;;;;;;;;;;5074344;28;20036;-76
2023/05/19 00:34:13;;;;;;;0.40;0.40;;;;;;;;;;5056147;28;20543;-75
2023/05/19 00:36:39;;;;;;;0.50;0.50;;;;;;;;;;5056189;28;20045;-76
2023/05/19 00:39:04;;;;;;;0.20;0.20;;;;;;;;;;5073920;28;20032;-76
2023/05/19 00:41:29;;;;;;;0.30;0.30;;;;;;;;;;5074057;28;20033;-75
2023/05/19 00:43:55;;;;;;;0.10;0.10;;;;;;;;;;5074030;28;20028;-76
2023/05/19 00:46:21;;;;;;;0.20;0.20;;;;;;;;;;5074325;28;20032;-76
2023/05/19 00:48:47;;;;;;;0.10;0.10;;;;;;;;;;5073962;28;20032;-75
2023/05/19 00:51:15;;;;;;;0.20;0.20;;;;;;;;;;5055113;28;20037;-76
2023/05/19 00:53:42;;;;;;;1.40;1.33;;;;;;;;;;5056039;28;20037;-76
2023/05/19 00:56:08;;;;;;;0.20;0.20;;;;;;;;;;5055999;28;20119;-75
2023/05/19 00:58:34;;;;;;;1.08;1.08;;;;;;;;;;5073921;28;20499;-75
2023/05/19 01:01:02;;;;;;;0.17;0.17;;;;;;;;;;5055937;28;20040;-76
2023/05/19 01:03:31;;;;;;;0.20;0.20;;;;;;;;;;5055696;28;20371;-76
2023/05/19 01:06:00;;;;;;;0.30;0.30;;;;;;;;;;5055674;28;20043;-76
2023/05/19 01:08:26;;;;;;;0.20;0.20;;;;;;;;;;5044718;28;20154;-75
2023/05/19 01:10:51;;;;;;;0.20;0.20;;;;;;;;;;5053536;28;20519;-75
2023/05/19 01:13:17;;;;;;;0.50;0.50;;;;;;;;;;5035762;28;20446;-75
2023/05/19 01:15:51;;;;;;;0.65;0.65;;;;;;;;;;5053523;28;20033;-75
2023/05/19 01:18:21;;;;;;;2.05;1.95;;;;;;;;;;5055626;28;20060;-75
2023/05/19 01:20:46;;;;;;;;;;;;;;;;;;5073986;28;20032;-76
2023/05/19 01:23:15;;;;;;;0.30;0.30;;;;;;;;;;5055539;28;19912;-75
2023/05/19 01:25:41;;;;;;;1.10;1.10;;;;;;;;;;5055587;28;20111;-75
2023/05/19 01:28:06;;;;;;;2.25;2.10;;;;;;;;;;5073413;28;20068;-75
2023/05/19 01:30:47;;;;;;;3.03;2.83;;;;;;;;;;5055340;28;20463;-75
2023/05/19 01:33:13;;;;;;;0.20;0.20;;;;;;;;;;5038914;28;20032;-76
2023/05/19 01:35:40;;;;;;;0.32;0.32;;;;;;;;;;5073125;28;20028;-76
2023/05/19 01:38:07;;;;;;;0.15;0.15;;;;;;;;;;5073065;28;20040;-76
2023/05/19 01:40:33;;;;;;;0.20;0.20;;;;;;;;;;5055310;28;20476;-76
2023/05/19 01:42:59;;;;;;;0.20;0.20;;;;;;;;;;5055220;28;20028;-75
2023/05/19 01:45:27;;;;;;;0.20;0.20;;;;;;;;;;5054952;28;20483;-75
2023/05/19 01:47:54;;;;;;;0.30;0.30;;;;;;;;;;5073222;28;20029;-76
2023/05/19 01:50:19;;;;;;;0.20;0.20;;;;;;;;;;5038383;28;20560;-75
2023/05/19 01:52:45;;;;;;;1.80;1.70;;;;;;;;;;5054510;28;20119;-75
2023/05/19 01:55:10;;;;;;;1.13;1.08;;;;;;;;;;5054868;28;20032;-75
2023/05/19 01:57:42;;;;;;;0.43;0.43;;;;;;;;;;5054837;28;20174;-75
2023/05/19 02:00:26;;;;;;;0.50;0.50;;;;;;;;;;5054123;28;20511;-76
2023/05/19 02:02:53;;;;;;;0.40;0.40;;;;;;;;;;5054095;28;20039;-75
2023/05/19 02:05:28;;;;;;;0.40;0.40;;;;;;;;;;5054563;28;20032;-75
2023/05/19 02:08:25;;;;;;;0.20;0.20;;;;;;;;;;5038779;28;20037;-76
2023/05/19 02:10:55;;;;;;;0.20;0.20;;;;;;;;;;5059566;28;20094;-75
2023/05/19 02:13:22;;;;;;;0.13;0.13;;;;;;;;;;5072693;28;20032;-75
2023/05/19 02:15:48;;;;;;;0.20;0.20;;;;;;;;;;5054764;28;20024;-75
2023/05/19 02:18:16;;;;;;;0.40;0.40;;;;;;;;;;5054294;28;20044;-75
2023/05/19 02:20:43;;;;;;;0.88;0.85;;;;;;;;;;5054602;28;20040;-75
2023/05/19 02:23:08;;;;;;;0.20;0.20;;;;;;;;;;5072280;28;20085;-75
2023/05/19 02:25:33;;;;;;;1.02;1.02;;;;;;;;;;5072709;28;20063;-75
2023/05/19 02:27:59;;;;;;;0.20;0.20;;;;;;;;;;5054728;28;20134;-75
2023/05/19 02:30:30;;;;;;;0.20;0.20;;;;;;;;;;5054550;28;20036;-75
2023/05/19 02:32:59;;;;;;;0.20;0.20;;;;;;;;;;5054565;28;20400;-75
2023/05/19 02:35:24;;;;;;;0.50;0.50;;;;;;;;;;5054524;28;20040;-75
2023/05/19 02:37:50;;;;;;;0.20;0.20;;;;;;;;;;5072222;28;20029;-75
2023/05/19 02:40:16;;;;;;;0.20;0.20;;;;;;;;;;5054423;28;20036;-75
2023/05/19 02:42:42;;;;;;;0.20;0.20;;;;;;;;;;5064096;28;20068;-75
2023/05/19 02:45:08;;;;;;;0.20;0.20;;;;;;;;;;5017885;28;20500;-75
2023/05/19 02:47:33;;;;;;;0.13;0.13;;;;;;;;;;5052175;28;20036;-75
2023/05/19 02:49:59;;;;;;;0.20;0.20;;;;;;;;;;5034161;28;20192;-75
2023/05/19 02:52:24;;;;;;;0.20;0.20;;;;;;;;;;5037075;28;20053;-75
2023/05/19 02:54:50;;;;;;;0.20;0.20;;;;;;;;;;5072407;28;20096;-75
2023/05/19 02:57:15;;;;;;;3.65;2.35;;;;;;;;;;5072285;28;20091;-75
2023/05/19 02:59:41;;;;;;;0.20;0.20;;;;;;;;;;5054214;28;20036;-75
2023/05/19 03:02:07;;;;;;;0.20;0.20;;;;;;;;;;5051624;28;20037;-76
2023/05/19 03:04:40;;;;;;;0.10;0.10;;;;;;;;;;5067454;28;20442;-75
2023/05/19 03:07:06;;;;;;;0.20;0.20;;;;;;;;;;5068178;28;20041;-75
2023/05/19 03:09:31;;;;;;;0.20;0.20;;;;;;;;;;5068051;28;20052;-75
2023/05/19 03:12:02;;;;;;;0.20;0.20;;;;;;;;;;5050023;28;20043;-75
2023/05/19 03:14:28;;;;;;;0.20;0.20;;;;;;;;;;5068479;28;20491;-75
2023/05/19 03:16:54;;;;;;;0.20;0.20;;;;;;;;;;5071569;28;20064;-76
2023/05/19 03:19:20;;;;;;;0.30;0.30;;;;;;;;;;5053706;28;20040;-75
2023/05/19 03:21:46;;;;;;;0.22;0.22;;;;;;;;;;5053182;28;20044;-75
2023/05/19 03:24:12;;;;;;;0.20;0.20;;;;;;;;;;5053211;28;20013;-74
2023/05/19 03:26:37;;;;;;;0.20;0.20;;;;;;;;;;5053232;28;20396;-74
2023/05/19 03:29:03;;;;;;;0.20;0.20;;;;;;;;;;5053044;28;20032;-75
2023/05/19 03:31:30;;;;;;;0.20;0.20;;;;;;;;;;5053030;28;20078;-76
2023/05/19 03:33:57;;;;;;;0.22;0.22;;;;;;;;;;5036847;28;20382;-75
2023/05/19 03:36:23;;;;;;;0.20;0.20;;;;;;;;;;5070890;28;20040;-75
2023/05/19 03:38:48;;;;;;;0.35;0.35;;;;;;;;;;5052889;28;20033;-76
2023/05/19 03:41:14;;;;;;;0.20;0.20;;;;;;;;;;5052930;28;20500;-75
2023/05/19 03:43:40;;;;;;;0.20;0.20;;;;;;;;;;5052978;28;20028;-76
2023/05/19 03:46:06;;;;;;;0.20;0.20;;;;;;;;;;5036216;28;20029;-76
2023/05/19 03:48:50;;;;;;;0.22;0.22;;;;;;;;;;5070700;28;20094;-76
2023/05/19 03:51:27;;;;;;;0.20;0.20;;;;;;;;;;5071825;28;20366;-76
2023/05/19 03:53:55;;;;;;;0.20;0.20;;;;;;;;;;5069423;28;20507;-76
2023/05/19 03:56:22;;;;;;;0.30;0.30;;;;;;;;;;5069320;28;20040;-76
2023/05/19 03:58:48;;;;;;;0.20;0.20;;;;;;;;;;5069725;28;20032;-76
2023/05/19 04:01:14;;;;;;;0.10;0.10;;;;;;;;;;5068129;28;20060;-76
2023/05/19 04:03:39;;;;;;;0.25;0.25;;;;;;;;;;5052446;28;20488;-75
2023/05/19 04:06:05;;;;;;;0.13;0.13;;;;;;;;;;5070402;28;20042;-76
2023/05/19 04:08:30;;;;;;;0.40;0.40;;;;;;;;;;5052552;28;20056;-76
2023/05/19 04:10:56;;;;;;;0.20;0.20;;;;;;;;;;5070408;28;20120;-76
2023/05/19 04:13:21;;;;;;;0.10;0.10;;;;;;;;;;5070523;28;20029;-75
2023/05/19 04:15:47;;;;;;;0.20;0.20;;;;;;;;;;5070556;28;20054;-76
2023/05/19 04:18:12;;;;;;;0.10;0.10;;;;;;;;;;5070313;28;20114;-76
2023/05/19 04:20:38;;;;;;;0.40;0.40;;;;;;;;;;5052567;28;20059;-76
2023/05/19 04:23:04;;;;;;;0.20;0.20;;;;;;;;;;5052484;28;20032;-75
2023/05/19 04:25:29;;;;;;;0.20;0.20;;;;;;;;;;5052166;28;20047;-75
2023/05/19 04:27:56;;;;;;;0.20;0.20;;;;;;;;;;5065038;28;20037;-75
2023/05/19 04:30:23;;;;;;;0.10;0.10;;;;;;;;;;5049932;28;20043;-75
2023/05/19 04:32:49;;;;;;;0.20;0.20;;;;;;;;;;5032177;28;20556;-76
2023/05/19 04:35:16;;;;;;;0.20;0.20;;;;;;;;;;5032516;28;20129;-76
2023/05/19 04:37:44;;;;;;;0.20;0.20;;;;;;;;;;5032416;28;20033;-76
2023/05/19 04:40:11;;;;;;;0.20;0.20;;;;;;;;;;5032041;28;20488;-76
2023/05/19 04:42:40;;;;;;;0.20;0.20;;;;;;;;;;5032129;28;20032;-76
2023/05/19 04:45:07;;;;;;;0.20;0.20;;;;;;;;;;5040031;28;20089;-76
2023/05/19 04:47:36;;;;;;;0.57;0.57;;;;;;;;;;5035779;28;20040;-75
2023/05/19 04:50:06;;;;;;;0.73;0.73;;;;;;;;;;5051854;28;20040;-75
2023/05/19 04:52:33;;;;;;;0.20;0.20;;;;;;;;;;5052130;28;20028;-76
2023/05/19 04:55:00;;;;;;;0.20;0.20;;;;;;;;;;5052670;28;20171;-75
2023/05/19 04:57:26;;;;;;;0.60;0.60;;;;;;;;;;5051793;28;20309;-75
2023/05/19 04:59:52;;;;;;;0.20;0.20;;;;;;;;;;5049488;28;20054;-75
2023/05/19 05:02:18;;;;;;;0.28;0.28;;;;;;;;;;5048586;28;20127;-75
2023/05/19 05:04:45;;;;;;;0.20;0.20;;;;;;;;;;5049210;28;20173;-75
2023/05/19 05:07:11;;;;;;;0.20;0.20;;;;;;;;;;5047322;28;20427;-76
2023/05/19 05:09:37;;;;;;;0.40;0.40;;;;;;;;;;5047466;28;20321;-75
2023/05/19 05:12:03;;;;;;;0.20;0.20;;;;;;;;;;5047173;28;20376;-75
2023/05/19 05:14:29;;;;;;;0.20;0.20;;;;;;;;;;5046121;28;20475;-77
2023/05/19 05:16:55;;;;;;;0.20;0.20;;;;;;;;;;5048550;28;20594;-75
2023/05/19 05:19:23;;;;;;;0.20;0.20;;;;;;;;;;5049056;28;20040;-75
2023/05/19 05:21:48;;;;;;;0.20;0.20;;;;;;;;;;5049633;28;20036;-75
2023/05/19 05:24:15;;;;;;;0.20;0.20;;;;;;;;;;5067900;28;20081;-75
2023/05/19 05:26:45;;;;;;;0.68;0.68;;;;;;;;;;5049959;28;20472;-75
2023/05/19 05:29:12;;;;;;;0.10;0.10;;;;;;;;;;5050743;28;20043;-75
2023/05/19 05:31:38;;;;;;;0.13;0.13;;;;;;;;;;5051330;28;20025;-75
2023/05/19 05:34:03;;;;;;;0.20;0.20;;;;;;;;;;5069119;28;20120;-75
2023/05/19 05:36:30;;;;;;;0.20;0.20;;;;;;;;;;5051203;28;20032;-75
2023/05/19 05:38:58;;;;;;;0.30;0.30;;;;;;;;;;5034637;28;20039;-75
2023/05/19 05:41:25;;;;;;;0.20;0.20;;;;;;;;;;5051527;28;20041;-75
2023/05/19 05:43:51;;;;;;;0.20;0.20;;;;;;;;;;5051088;28;20046;-75
2023/05/19 05:46:17;;;;;;;0.20;0.20;;;;;;;;;;5051198;28;20387;-75
2023/05/19 05:48:42;;;;;;;0.20;0.20;;;;;;;;;;5069356;28;20040;-75
2023/05/19 05:51:09;;;;;;;0.20;0.20;;;;;;;;;;5050953;28;20093;-75
2023/05/19 05:53:40;;;;;;;0.38;0.38;;;;;;;;;;5051372;28;20812;-75
2023/05/19 05:56:06;;;;;;;4.40;3.03;;;;;;;;;;5050599;28;20047;-75
2023/05/19 05:58:40;;;;;;;0.20;0.20;;;;;;;;;;5051231;28;20045;-75
2023/05/19 06:01:09;;;;;;;0.20;0.20;;;;;;;;;;5051145;28;20445;-75
2023/05/19 06:03:39;;;;;;;0.20;0.20;;;;;;;;;;5050973;28;20441;-75
2023/05/19 06:06:07;;;;;;;0.20;0.20;;;;;;;;;;5050104;28;20094;-76
2023/05/19 06:08:33;;;;;;;0.20;0.20;;;;;;;;;;5049558;28;20036;-76
2023/05/19 06:10:58;;;;;;;0.20;0.20;;;;;;;;;;5050474;28;20032;-76
2023/05/19 06:13:25;;;;;;;0.20;0.20;;;;;;;;;;5050450;28;20040;-75
2023/05/19 06:15:50;;;;;;;0.20;0.20;;;;;;;;;;5049602;28;20032;-75
2023/05/19 06:18:22;;;;;;;0.20;0.20;;;;;;;;;;5049627;28;20432;-75
2023/05/19 06:20:48;;;;;;;0.25;0.25;;;;;;;;;;5067974;28;20082;-76
2023/05/19 06:23:13;;;;;;;0.20;0.20;;;;;;;;;;5050052;28;20032;-77
2023/05/19 06:25:39;;;;;;;0.20;0.20;;;;;;;;;;5049680;28;20044;-76
2023/05/19 06:28:05;;;;;;;0.10;0.10;;;;;;;;;;5067330;28;20028;-77
2023/05/19 06:30:31;;;;;;;0.20;0.20;;;;;;;;;;5049298;28;20036;-76
2023/05/19 06:33:04;;;;;;;0.20;0.20;;;;;;;;;;5049408;28;20056;-74
2023/05/19 06:35:31;;;;;;;0.20;0.20;;;;;;;;;;5049341;28;20032;-76
2023/05/19 06:37:57;;;;;;;0.20;0.20;;;;;;;;;;5049628;28;20037;-76
2023/05/19 06:40:22;;;;;;;0.20;0.20;;;;;;;;;;5048473;28;20399;-76
2023/05/19 06:42:48;;;;;;;0.20;0.20;;;;;;;;;;5049233;28;20035;-76
2023/05/19 06:45:33;;;;;;;0.30;0.30;;;;;;;;;;5059602;28;20494;-76
2023/05/19 06:48:02;;;;;;;0.20;0.20;;;;;;;;;;5048908;28;20032;-76
2023/05/19 06:50:28;;;;;;;0.22;0.22;;;;;;;;;;5050864;28;20037;-76
2023/05/19 06:52:53;;;;;;;0.20;0.20;;;;;;;;;;5052863;28;20037;-76
2023/05/19 06:55:19;;;;;;;0.20;0.20;;;;;;;;;;5052577;28;20396;-76
2023/05/19 06:57:44;;;;;;;0.20;0.20;;;;;;;;;;5071143;28;20036;-76
2023/05/19 07:00:11;;;;;;;0.20;0.20;;;;;;;;;;5052987;28;20024;-75
2023/05/19 07:02:39;;;;;;;0.30;0.30;;;;;;;;;;5052629;28;20115;-76
2023/05/19 07:05:05;;;;;;;0.30;0.30;;;;;;;;;;5052360;28;20547;-75
2023/05/19 07:07:30;;;;;;;0.25;0.25;;;;;;;;;;5052434;28;20037;-76
2023/05/19 07:09:57;;;;;;;0.20;0.20;;;;;;;;;;5052369;28;20036;-75
2023/05/19 07:12:23;;;;;;;0.20;0.20;;;;;;;;;;5070390;28;20055;-76
2023/05/19 07:14:49;;;;;;;0.20;0.20;;;;;;;;;;5052660;28;20849;-75
2023/05/19 07:17:15;;;;;;;0.30;0.30;;;;;;;;;;5052638;28;20056;-75
2023/05/19 07:19:43;;;;;;;0.20;0.20;;;;;;;;;;5052814;28;20043;-76
2023/05/19 07:22:09;;;;;;;0.20;0.20;;;;;;;;;;5071027;28;20388;-75
2023/05/19 07:24:34;;;;;;;0.20;0.20;;;;;;;;;;5071268;28;20024;-76
2023/05/19 07:27:00;;;;;;;0.30;0.30;;;;;;;;;;5071481;28;20064;-77
2023/05/19 07:29:25;;;;;;;0.20;0.20;;;;;;;;;;5053258;28;20074;-76
2023/05/19 07:31:53;;;;;;;0.32;0.32;;;;;;;;;;5071330;28;20036;-76
2023/05/19 07:34:21;;;;;;;0.20;0.20;;;;;;;;;;5071448;28;20063;-76
2023/05/19 07:36:46;;;;;;;0.30;0.30;;;;;;;;;;5071649;28;20214;-76
2023/05/19 07:39:12;;;;;;;0.20;0.20;;;;;;;;;;5071468;28;20072;-76
2023/05/19 07:41:37;;;;;;;0.20;0.20;;;;;;;;;;5071061;28;20028;-76
2023/05/19 07:44:06;;;;;;;0.30;0.30;;;;;;;;;;5053279;28;20056;-76
2023/05/19 07:46:35;;;;;;;0.45;0.45;;;;;;;;;;5071385;28;20029;-76
2023/05/19 07:49:01;;;;;;;0.22;0.22;;;;;;;;;;5071263;28;20072;-76
2023/05/19 07:51:26;;;;;;;0.20;0.20;;;;;;;;;;5070918;28;20141;-76
2023/05/19 07:53:52;;;;;;;0.30;0.30;;;;;;;;;;5071045;28;20032;-76
2023/05/19 07:56:17;;;;;;;0.20;0.20;;;;;;;;;;5070839;28;20029;-76
2023/05/19 07:58:43;;;;;;;0.13;0.13;;;;;;;;;;5070977;28;20396;-76
2023/05/19 08:01:08;;;;;;;0.20;0.20;;;;;;;;;;5070732;28;20020;-76
2023/05/19 08:03:33;;;;;;;0.20;0.20;;;;;;;;;;5071100;28;20124;-76
2023/05/19 08:05:59;;;;;;;0.20;0.20;;;;;;;;;;5070552;28;20040;-76
2023/05/19 08:08:24;;;;;;;0.30;0.30;;;;;;;;;;5070641;28;20074;-76
2023/05/19 08:10:50;;;;;;;0.20;0.20;;;;;;;;;;5053006;28;20045;-76
2023/05/19 08:13:15;;;;;;;0.22;0.22;;;;;;;;;;5070640;28;20479;-76
2023/05/19 08:15:41;;;;;;;0.20;0.20;;;;;;;;;;5070650;28;20134;-76
2023/05/19 08:18:06;;;;;;;0.22;0.22;;;;;;;;;;5070553;28;20025;-76
2023/05/19 08:20:32;;;;;;;0.20;0.20;;;;;;;;;;5052386;28;20479;-76
2023/05/19 08:22:58;;;;;;;0.20;0.20;;;;;;;;;;5070536;28;20037;-76
2023/05/19 08:25:23;;;;;;;0.20;0.20;;;;;;;;;;5052621;28;20027;-76
2023/05/19 08:27:49;;;;;;;0.20;0.20;;;;;;;;;;5070706;28;20053;-76
2023/05/19 08:30:15;;;;;;;0.20;0.20;;;;;;;;;;5070394;28;20028;-77
2023/05/19 08:32:40;;;;;;;0.20;0.20;;;;;;;;;;5070314;28;20093;-76
2023/05/19 08:35:06;;;;;;;0.20;0.20;;;;;;;;;;5070410;28;20486;-77
2023/05/19 08:37:32;;;;;;;0.20;0.20;;;;;;;;;;5070611;28;20036;-76
2023/05/19 08:39:58;;;;;;;0.20;0.20;;;;;;;;;;5070483;28;20472;-76
2023/05/19 08:42:23;;;;;;;0.20;0.20;;;;;;;;;;5070179;28;20038;-76
2023/05/19 08:44:48;;;;;;;0.20;0.20;;;;;;;;;;5070528;28;20115;-77
2023/05/19 08:47:14;;;;;;;0.20;0.20;;;;;;;;;;5070177;28;20373;-76
2023/05/19 08:49:44;;;;;;;0.20;0.20;;;;;;;;;;5052088;28;20098;-76
2023/05/19 08:52:18;;;;;;;0.38;0.38;;;;;;;;;;5069980;28;20029;-77
2023/05/19 08:54:53;;;;;;;0.20;0.20;;;;;;;;;;5070237;28;20043;-77
2023/05/19 08:57:20;;;;;;;0.30;0.30;;;;;;;;;;5070501;28;20032;-76
2023/05/19 08:59:45;;;;;;;0.17;0.17;;;;;;;;;;5069914;28;20098;-78
2023/05/19 09:02:12;;;;;;;0.20;0.20;;;;;;;;;;5069774;28;20036;-77
2023/05/19 09:04:38;;;;;;;0.20;0.20;;;;;;;;;;5070175;28;20035;-76
2023/05/19 09:07:05;;;;;;;0.20;0.20;;;;;;;;;;5070508;28;20035;-76
2023/05/19 09:09:31;;;;;;;0.20;0.20;;;;;;;;;;5050908;28;20039;-76
2023/05/19 09:11:57;;;;;;;0.20;0.20;;;;;;;;;;5069419;28;20040;-75
2023/05/19 09:14:22;;;;;;;0.20;0.20;;;;;;;;;;5068384;28;20028;-77
2023/05/19 09:16:51;;;;;;;0.28;0.28;;;;;;;;;;5068833;28;20476;-77
2023/05/19 09:19:16;;;;;;;0.30;0.30;;;;;;;;;;5068600;28;20071;-77
2023/05/19 09:21:42;;;;;;;0.30;0.30;;;;;;;;;;5050016;28;20318;-76
2023/05/19 09:24:08;;;;;;;0.30;0.30;;;;;;;;;;5065974;28;20028;-76
2023/05/19 09:26:41;;;;;;;0.20;0.20;;;;;;;;;;5068299;28;20082;-77
2023/05/19 09:29:13;;;;;;;0.20;0.20;;;;;;;;;;5066429;28;20037;-77
2023/05/19 09:31:39;;;;;;;0.20;0.20;;;;;;;;;;5066990;28;20040;-76
2023/05/19 09:34:10;;;;;;;0.20;0.20;;;;;;;;;;5049929;28;20384;-77
2023/05/19 09:36:37;;;;;;;0.20;0.20;;;;;;;;;;5068857;28;20036;-77
2023/05/19 09:39:11;;;;;;;0.25;0.25;;;;;;;;;;5068782;28;20033;-77
2023/05/19 09:41:36;;;;;;;0.30;0.30;;;;;;;;;;5068672;28;20076;-78
2023/05/19 09:44:02;;;;;;;0.20;0.20;;;;;;;;;;5067981;28;20437;-78
2023/05/19 09:46:28;;;;;;;0.20;0.20;;;;;;;;;;5049999;28;20028;-78
2023/05/19 09:48:57;;;;;;;0.30;0.30;;;;;;;;;;5050575;28;20060;-77
2023/05/19 09:51:23;;;;;;;0.22;0.22;;;;;;;;;;5068592;28;20025;-77
2023/05/19 09:53:49;;;;;;;0.20;0.20;;;;;;;;;;5068399;28;20068;-77
2023/05/19 09:56:14;;;;;;;0.20;0.20;;;;;;;;;;5068244;28;20068;-77
2023/05/19 09:58:43;;;;;;;0.20;0.20;;;;;;;;;;5068253;28;20293;-77
2023/05/19 10:01:08;;;;;;;0.20;0.20;;;;;;;;;;5068442;28;20036;-78
2023/05/19 10:03:35;;;;;;;0.20;0.20;;;;;;;;;;5068154;28;20029;-77
2023/05/19 10:06:02;;;;;;;0.20;0.20;;;;;;;;;;5068034;28;20098;-78
2023/05/19 10:08:29;;;;;;;0.20;0.20;;;;;;;;;;5060071;28;20021;-79
2023/05/19 10:10:54;;;;;;;0.20;0.20;;;;;;;;;;5033379;28;20483;-79
2023/05/19 10:13:20;;;;;;;0.20;0.20;;;;;;;;;;5066556;28;20037;-79
2023/05/19 10:15:45;;;;;;;0.20;0.20;;;;;;;;;;5067530;28;20515;-78
2023/05/19 10:18:14;;;;;;;0.30;0.30;;;;;;;;;;5068231;28;20041;-78
2023/05/19 10:20:40;;;;;;;0.20;0.20;;;;;;;;;;5068224;28;20037;-78
2023/05/19 10:23:05;;;;;;;0.20;0.20;;;;;;;;;;5050353;28;20119;-78
2023/05/19 10:25:31;;;;;;;0.20;0.20;;;;;;;;;;5066835;28;20483;-78
2023/05/19 10:28:00;;;;;;;0.20;0.20;;;;;;;;;;5068077;28;20404;-77
2023/05/19 10:30:28;;;;;;;0.20;0.20;;;;;;;;;;5066962;28;20045;-77
2023/05/19 10:32:56;;;;;;;0.20;0.20;;;;;;;;;;5067303;28;20028;-77
2023/05/19 10:35:25;;;;;;;0.20;0.20;;;;;;;;;;5068167;28;20028;-78
2023/05/19 10:37:50;;;;;;;0.20;0.20;;;;;;;;;;5068072;28;20075;-78
2023/05/19 10:40:29;;;;;;;0.20;0.20;;;;;;;;;;5068077;28;20071;-78
2023/05/19 10:43:10;;;;;;;0.50;0.50;;;;;;;;;;5069901;28;20028;-78
2023/05/19 10:45:44;;;;;;;0.20;0.20;;;;;;;;;;5050890;28;20695;-78
2023/05/19 10:48:12;;;;;;;0.20;0.20;;;;;;;;;;5049874;28;20039;-77
2023/05/19 10:50:38;;;;;;;0.20;0.20;;;;;;;;;;5067400;28;20045;-77
2023/05/19 10:53:03;;;;;;;0.20;0.20;;;;;;;;;;5067508;28;20119;-78
2023/05/19 10:55:43;;;;;;;0.25;0.25;;;;;;;;;;5050063;28;20700;-79
2023/05/19 10:58:10;;;;;;;0.30;0.30;;;;;;;;;;5067299;28;20073;-79
2023/05/19 11:00:37;;;;;;;0.22;0.22;;;;;;;;;;5049283;28;20044;-78
2023/05/19 11:03:12;;;;;;;0.20;0.20;;;;;;;;;;5067791;28;20033;-78
2023/05/19 11:05:37;;;;;;;0.22;0.22;;;;;;;;;;5067728;28;20043;-78
2023/05/19 11:08:04;;;;;;;0.20;0.20;;;;;;;;;;5067403;28;20119;-79
2023/05/19 11:10:31;;;;;;;0.20;0.20;;;;;;;;;;5067824;28;20476;-78
2023/05/19 11:12:56;;;;;;;0.20;0.20;;;;;;;;;;5067854;28;20474;-78
2023/05/19 11:15:24;;;;;;;0.20;0.20;;;;;;;;;;5065771;28;20037;-78
2023/05/19 11:17:49;;;;;;;0.20;0.20;;;;;;;;;;5067541;28;20680;-79
2023/05/19 11:20:21;;;;;;;0.20;0.20;;;;;;;;;;5067371;28;20032;-80
2023/05/19 11:23:02;;;;;;;0.20;0.20;;;;;;;;;;5067335;28;20029;-79
2023/05/19 11:25:47;;;;;;;0.30;0.30;;;;;;;;;;5067468;28;20039;-80
2023/05/19 11:28:18;;;;;;;0.30;0.30;;;;;;;;;;5067146;28;20041;-79
2023/05/19 11:30:44;;;;;;;0.20;0.20;;;;;;;;;;5066918;28;20480;-78
2023/05/19 11:33:09;;;;;;;0.20;0.20;;;;;;;;;;5067366;28;20133;-78
2023/05/19 11:35:35;;;;;;;0.20;0.20;;;;;;;;;;5068027;28;20115;-77
2023/05/19 11:38:02;;;;;;;0.20;0.20;;;;;;;;;;5053095;28;20024;-79
2023/05/19 11:40:27;;;;;;;0.30;0.30;;;;;;;;;;5071076;28;20112;-82
2023/05/19 11:42:53;;;;;;;0.20;0.20;;;;;;;;;;5062944;28;20535;-82
2023/05/19 11:45:23;;;;;;;0.20;0.20;;;;;;;;;;5069657;28;20032;-82
2023/05/19 11:47:48;;;;;;;0.20;0.20;;;;;;;;;;5070493;28;20028;-81
2023/05/19 11:50:15;;;;;;;0.20;0.20;;;;;;;;;;5070442;28;20177;-81
2023/05/19 11:52:43;;;;;;;0.22;0.22;;;;;;;;;;5070580;28;20032;-81
2023/05/19 11:55:13;;;;;;;0.20;0.20;;;;;;;;;;5071641;28;20023;-81
2023/05/19 11:57:38;;;;;;;0.40;0.40;;;;;;;;;;5074527;28;20037;-81
2023/05/19 12:00:07;;;;;;;0.25;0.25;;;;;;;;;;5069526;28;20047;-81
2023/05/19 12:02:33;;;;;;;;;;;;;;;;;;5069876;28;20047;-80
2023/05/19 12:04:58;;;;;;;0.30;0.30;;;;;;;;;;5070465;28;19917;-77
2023/05/19 12:07:24;;;;;;;0.20;0.20;;;;;;;;;;5070172;28;20259;-79
2023/05/19 12:09:51;;;;;;;0.30;0.30;;;;;;;;;;5070276;28;20040;-79
2023/05/19 12:12:17;;;;;;;0.30;0.30;;;;;;;;;;5070659;28;20040;-78
2023/05/19 12:14:44;;;;;;;0.20;0.20;;;;;;;;;;5069570;28;20182;-77
2023/05/19 12:17:12;;;;;;;0.28;0.28;;;;;;;;;;5070071;28;20487;-79
2023/05/19 12:19:38;;;;;;;0.30;0.30;;;;;;;;;;5070775;28;20052;-81
2023/05/19 12:22:05;;;;;;;0.50;0.50;;;;;;;;;;5070023;28;20032;-79
2023/05/19 12:24:32;;;;;;;0.35;0.35;;;;;;;;;;5052317;28;20470;-78
2023/05/19 12:27:13;;;;;;;0.30;0.30;;;;;;;;;;5055351;28;20033;-78
2023/05/19 12:29:39;;;;;;;0.30;0.30;;;;;;;;;;5069964;28;20047;-78
2023/05/19 12:32:08;;;;;;;0.28;0.28;;;;;;;;;;5051305;28;20036;-79
2023/05/19 12:34:38;;;;;;;0.30;0.30;;;;;;;;;;5049801;28;20037;-78
2023/05/19 12:37:04;;;;;;;4.40;0.40;;;;;;;;;;5069563;28;20045;-81
2023/05/19 12:39:30;;;;;;;0.20;0.20;;;;;;;;;;5069788;28;20028;-81
2023/05/19 12:42:02;;;;;;;0.30;0.30;;;;;;;;;;5051240;28;20131;-81
2023/05/19 12:44:29;;;;;;;0.20;0.20;;;;;;;;;;5069747;28;20112;-80
2023/05/19 12:46:55;;;;;;;0.30;0.30;;;;;;;;;;5071631;28;20079;-80
2023/05/19 12:49:21;;;;;;;0.35;0.35;;;;;;;;;;5059677;28;20043;-79
2023/05/19 12:51:50;;;;;;;7.88;1.85;;;;;;;;;;5049859;28;20037;-79
2023/05/19 12:54:19;;;;;;;0.98;0.60;;;;;;;;;;5049327;28;20028;-79
2023/05/19 12:56:45;;;;;;;;;;;;;;;;;;5050071;28;20029;-80
2023/05/19 12:59:10;;;;;;;1.40;1.20;;;;;;;;;;5049945;28;19939;-80
2023/05/19 13:01:36;;;;;;;0.20;0.20;;;;;;;;;;5049680;28;20072;-79
2023/05/19 13:04:01;;;;;;;3.28;0.75;;;;;;;;;;5059015;28;20082;-79
2023/05/19 13:06:26;;;;;;;1.25;0.68;;;;;;;;;;5069203;28;20033;-79
2023/05/19 13:08:52;;;;;;;0.90;0.85;;;;;;;;;;5055607;28;20074;-78
2023/05/19 13:11:17;;;;;;;0.20;0.20;;;;;;;;;;5049041;28;20575;-79
2023/05/19 13:13:43;;;;;;;1.75;0.38;;;;;;;;;;5049746;28;20169;-80
2023/05/19 13:16:08;;;;;;;0.70;0.70;;;;;;;;;;5049018;28;20075;-80
2023/05/19 13:18:36;;;;;;;0.30;0.30;;;;;;;;;;5049121;28;20029;-80
2023/05/19 13:21:02;;;;;;;0.20;0.20;;;;;;;;;;5049209;28;20041;-81
2023/05/19 13:23:28;;;;;;;0.77;0.57;;;;;;;;;;5048097;28;20019;-79
2023/05/19 13:25:53;;;;;;;0.20;0.20;;;;;;;;;;5048977;28;20041;-80
2023/05/19 13:28:19;;;;;;;0.73;0.40;;;;;;;;;;5064781;28;20032;-79
2023/05/19 13:30:44;;;;;;;2.22;2.05;;;;;;;;;;5068431;28;20040;-80
2023/05/19 13:33:10;;;;;;;0.40;0.40;;;;;;;;;;5068175;28;20025;-81
2023/05/19 13:35:36;;;;;;;0.40;0.40;;;;;;;;;;5068891;28;20510;-81
2023/05/19 13:38:08;;;;;;;1.00;0.70;;;;;;;;;;5051545;28;20029;-81
2023/05/19 13:40:34;;;;;;;0.20;0.20;;;;;;;;;;5034949;28;20227;-79
2023/05/19 13:43:03;;;;;;;1.83;0.85;;;;;;;;;;5050829;28;20365;-82
2023/05/19 13:45:28;;;;;;;0.25;0.25;;;;;;;;;;5051152;28;20036;-80
2023/05/19 13:47:54;;;;;;;2.72;1.00;;;;;;;;;;5050718;28;20044;-82
2023/05/19 13:50:19;;;;;;;0.55;0.50;;;;;;;;;;5068205;28;20040;-81
2023/05/19 13:52:47;;;;;;;0.20;0.20;;;;;;;;;;5068412;28;20032;-80
2023/05/19 13:55:12;;;;;;;0.20;0.20;;;;;;;;;;5067872;28;20047;-79
2023/05/19 13:57:38;;;;;;;10.55;1.00;;;;;;;;;;5068596;28;20029;-78
2023/05/19 14:00:04;;;;;;;0.28;0.28;;;;;;;;;;5067325;28;20515;-79
2023/05/19 14:02:39;;;;;;;0.20;0.20;;;;;;;;;;5068049;28;20017;-79
2023/05/19 14:05:05;;;;;;;2.83;0.88;;;;;;;;;;5053970;28;20162;-79
2023/05/19 14:07:31;;;;;;;0.20;0.20;;;;;;;;;;5066688;28;20024;-76
2023/05/19 14:09:56;;;;;;;0.10;0.10;;;;;;;;;;5068755;28;20105;-75
2023/05/19 14:12:21;;;;;;;0.20;0.20;;;;;;;;;;5067994;28;20052;-74
2023/05/19 14:14:47;;;;;;;0.82;0.50;;;;;;;;;;5068737;28;20470;-76
2023/05/19 14:17:13;;;;;;;0.20;0.20;;;;;;;;;;5068116;28;20036;-78
2023/05/19 14:19:38;;;;;;;0.20;0.20;;;;;;;;;;5052382;28;20103;-74
2023/05/19 14:22:04;;;;;;;2.00;0.40;;;;;;;;;;5048139;28;20025;-75
2023/05/19 14:24:29;;;;;;;0.20;0.20;;;;;;;;;;5048723;28;20382;-75
2023/05/19 14:26:55;;;;;;;0.20;0.20;;;;;;;;;;5069346;28;20032;-75
2023/05/19 14:29:20;;;;;;;0.20;0.20;;;;;;;;;;5068751;28;20043;-76
2023/05/19 14:31:46;;;;;;;0.20;0.20;;;;;;;;;;5068663;28;20024;-75
2023/05/19 14:34:11;;;;;;;0.20;0.20;;;;;;;;;;5068460;28;20024;-75
2023/05/19 14:36:37;;;;;;;0.20;0.20;;;;;;;;;;5068225;28;20029;-76
2023/05/19 14:39:02;;;;;;;0.40;0.40;;;;;;;;;;5068522;28;20047;-80
2023/05/19 14:41:28;;;;;;;0.20;0.20;;;;;;;;;;5068696;28;20374;-76